x

Folly Island, Sc (fbis1) Weather Station

11:00am - Sun 29th May 2016 All times are EDT. -4 hours from GMT.

  • Wind
    14mph, 16mph gusts
  • Air Temp 74°f
  • Sea Pressure 1012.8mb
  • Folly Island, Sc
  • Folly Island, Sc

More Historic Weather Station data

Upgrade to MSW Pro to gain access to the past 30 days of data for over 8000 Wavebouys and Weather Stations around the globe.

Join Pro

Comparision Forecast

View Surf forecast
   
Sun 05/29 11:00am 14 16 mph 1012.8mb 74f
10:00am 17 21 mph 1012.5mb 75f
9:00am 16 22 mph 1011mb 73f
8:00am 9 13 mph 1010.7mb 73f
7:00am 11 17 mph 1011.2mb 73f
6:00am 11 15 mph 1012mb 73f
5:00am 21 23 mph 1012.5mb 74f
4:00am 26 30 mph 1012.9mb 74f
3:00am 18 21 mph 1013.7mb 74f
2:00am 20 22 mph 1014.2mb 74f
1:00am 20 23 mph 1015.3mb 74f
12:00am 21 24 mph 1015.9mb 73f
Sat 05/28 11:00pm 13 18 mph 1016.5mb 71f
10:00pm 16 21 mph 1016.5mb 70f
9:00pm 18 23 mph 1016.6mb 70f
8:00pm 18 23 mph 1016.8mb 70f
7:00pm 22 29 mph 1017.2mb 70f
6:00pm 17 21 mph 1017.7mb 70f
5:00pm 11 16 mph 1018.6mb 70f
4:00pm 17 21 mph 1019mb 69f
3:00pm 22 26 mph 1019.2mb 71f
2:00pm 15 18 mph 1019.2mb 73f
1:00pm 18 21 mph 1019.6mb 75f
12:00pm 18 21 mph 1020.1mb 76f
11:00am 22 24 mph 1019.7mb 76f
10:00am 17 20 mph 1019.6mb 75f
9:00am 16 17 mph 1019.5mb 76f
8:00am 13 15 mph 1019.2mb 73f
7:00am 11 14 mph 1019mb 73f
6:00am 10 13 mph 1018.3mb 73f
5:00am 15 16 mph 1017.9mb 75f
4:00am 13 15 mph 1017.9mb 75f
3:00am 14
mph
1018.3mb 75f
2:00am 15 16 mph 1018.7mb 75f
1:00am 15 16 mph 1019mb 76f
12:00am 14 15 mph 1019.2mb 76f
Fri 05/27 11:00pm 15 17 mph 1019.3mb 76f
10:00pm 16 18 mph 1019mb 76f
9:00pm 17 18 mph 1018.7mb 75f
8:00pm 17 20 mph 1018.6mb 76f
7:00pm 17 18 mph 1018.7mb 76f
6:00pm 14 15 mph 1019.1mb 77f
5:00pm 15 16 mph 1019.4mb 78f
4:00pm 11 13 mph 1019.8mb 78f
3:00pm 13 15 mph 1020.3mb 79f
2:00pm 10 13 mph 1020.5mb 79f
1:00pm 14 15 mph 1020.8mb 78f
12:00pm 13 15 mph 1021.3mb 78f
11:00am 13 15 mph 1021mb 77f
10:00am 9
mph
1020.9mb 78f
9:00am 9 10 mph 1020.7mb 76f
8:00am 6
mph
1020.8mb 76f
7:00am 2 3 mph 1020.4mb 71f
6:00am 5
mph
1020.1mb 75f
5:00am 5 7 mph 1019.8mb 76f
4:00am 7 8 mph 1019.6mb 76f
3:00am 13 14 mph 1019.5mb 76f
2:00am 14 15 mph 1020.1mb 76f
1:00am 14 15 mph 1020.3mb 77f
12:00am 11 13 mph 1020.8mb 77f
Thu 05/26 11:00pm 13 14 mph 1021.4mb 77f
10:00pm 7 8 mph 1021.1mb 76f
9:00pm 8
mph
1020.5mb 76f
8:00pm 8 10 mph 1020.1mb 76f
7:00pm 10
mph
1020.1mb 76f
6:00pm 13 14 mph 1020.6mb 77f
5:00pm 10 11 mph 1021.3mb 78f
4:00pm 8 9 mph 1021.9mb 78f
3:00pm 8 9 mph 1022mb 78f
2:00pm 8 9 mph 1022.5mb 78f
1:00pm 8 10 mph 1022.9mb 78f
12:00pm 9 10 mph 1023.5mb 77f
11:00am 6 8 mph 1023.5mb 77f
10:00am 5 6 mph 1023.5mb 77f
9:00am 6 7 mph 1023.5mb 76f
8:00am 7 8 mph 1023.4mb 76f
7:00am 10
mph
1022.8mb 75f
6:00am 9 10 mph 1022.5mb 75f
5:00am 10 11 mph 1022.3mb 75f
4:00am 11 13 mph 1022mb 75f
3:00am 13 14 mph 1022.2mb 75f
2:00am 13 15 mph 1022.4mb 75f
1:00am 13 14 mph 1022.9mb 76f
12:00am 11 13 mph 1023.4mb 76f
Wed 05/25 11:00pm 10 13 mph 1023.5mb 76f
10:00pm 11 14 mph 1023.1mb 76f
9:00pm 14 15 mph 1022.5mb 76f
8:00pm 13 14 mph 1022.3mb 76f
7:00pm 13 14 mph 1022.2mb 77f
6:00pm 14 15 mph 1022.5mb 77f
5:00pm 13 15 mph 1023.1mb 78f